This is the latest recevied weather packets stored in our database for station/object NK0Z-13. If no packets are shown the sender has not sent any weather packets the latest 1 day(s).
| Time | Temp. | Humidity | Pressure | Rain* | Wind** | Luminosity | Snow |
|---|---|---|---|---|---|---|---|
| 1836274411 | 21.67° C | 72% | 1016.7 hPa | 0 mm | 2.68 m/s, 120° | 0 W/m² | - |
| 1836274264 | 21.11° C | 72% | 1017.2 hPa | 0 mm | 1.79 m/s, 129° | 0 W/m² | - |
| 1778037114 | 7.78° C | 83% | 1017.3 hPa | 0.51 mm | 3.58 m/s, 20° | 0 W/m² | - |
| 1778036509 | 8.89° C | 78% | 1016.8 hPa | 0.51 mm | 1.79 m/s, 40° | 0 W/m² | - |
| 1778035908 | 9.44° C | 75% | 1017.4 hPa | 0 mm | 1.34 m/s, 354° | 0 W/m² | - |
| 1778035308 | 9.44° C | 75% | 1017 hPa | 0 mm | 1.79 m/s, 17° | 0 W/m² | - |
| 1778034707 | 9.44° C | 77% | 1016.7 hPa | 0 mm | 1.79 m/s, 44° | 0 W/m² | - |
| 1778034107 | 9.44° C | 77% | 1016.9 hPa | 0 mm | 1.79 m/s, 23° | 0 W/m² | - |
| 1778033502 | 8.89° C | 81% | 1016.5 hPa | 0 mm | 0.89 m/s, 4° | 0 W/m² | - |
| 1778032902 | 8.89° C | 81% | 1016.7 hPa | 0 mm | 0 m/s | 0 W/m² | - |
| 1778032297 | 9.44° C | 79% | 1016.5 hPa | 0 mm | 0 m/s | 0 W/m² | - |
| 1778031696 | 9.44° C | 79% | 1016 hPa | 0 mm | 0.45 m/s, 81° | 0 W/m² | - |
| 1778031091 | 9.44° C | 77% | 1015.5 hPa | 0 mm | 0.89 m/s, 321° | 0 W/m² | - |
| 1778030489 | 9.44° C | 77% | 1015.3 hPa | 0 mm | 0.89 m/s, 9° | 1 W/m² | - |
| 1778029889 | 9.44° C | 76% | 1015.1 hPa | 0 mm | 0 m/s | 4 W/m² | - |
| 1778029285 | 10° C | 75% | 1014.9 hPa | 0 mm | 1.34 m/s, 3° | 6 W/m² | - |
| 1778028684 | 10° C | 74% | 1015.2 hPa | 0 mm | 0.89 m/s, 359° | 7 W/m² | - |
| 1778028084 | 10° C | 75% | 1014.7 hPa | 0 mm | 2.24 m/s, 16° | 14 W/m² | - |
| 1778027482 | 10° C | 74% | 1014.7 hPa | 0 mm | 1.34 m/s, 22° | 25 W/m² | - |
| 1778026880 | 10.56° C | 69% | 1014.8 hPa | 0 mm | 3.58 m/s, 11° | 35 W/m² | - |
| 1778026279 | 10.56° C | 67% | 1014.7 hPa | 0 mm | 1.79 m/s, 11° | 23 W/m² | - |
| 1778025679 | 10.56° C | 66% | 1014.6 hPa | 0 mm | 2.68 m/s, 26° | 32 W/m² | - |
| 1778025074 | 11.11° C | 66% | 1014.6 hPa | 0 mm | 2.68 m/s, 31° | 42 W/m² | - |
| 1778024473 | 11.11° C | 65% | 1014.4 hPa | 0 mm | 1.79 m/s, 1° | 57 W/m² | - |
| 1778023868 | 11.67° C | 64% | 1014.2 hPa | 0 mm | 2.24 m/s, 0° | 116 W/m² | - |
* Rain latest hour (hover to see other rain measurements)
** Current wind speed in m/s (hover to see current wind gust speed)